Terminal Aerodrome Forecast
Issued by NWS Tiyan, Guam

Home | Current Version | Previous Version | Text Only | Print | Product List | Glossary On
Versions: 1 2 3 4 5 6 7 8 9 10 11 12 13
000
FTPQ31 PGUM 242331
TAFGUM
TAF
PGUM 242331Z 2500/2606 05011KT P6SM VCSH SCT020 SCT050
      TEMPO 2500/2502 4SM SHRA SCT015 BKN025=

USA.gov is the U.S. government's official web portal to all federal, state and local government web resources and services.